ETSL

Lechfeld Airport

Germany
METAR ETSL 161520Z 05007KT 9999 FEW015 03/01 Q1026 BLU+
Observed Flight Rules
Nov-16 @ 15:20 UTC (44 minutes ago) Visual Flight Rules
Wind Visibility Clouds
50° at 7 knots 10,000+ meters
  • Few at 1,500' AGL
Temperatures Readings
Current 3°C / 37°F
Dewpoint 1°C / 34°F
Humidity 87%
Altimeter 30.3" Hg
Pressure 1026 hPa
Elevation 562
METAR ETSL 161520Z 05007KT 9999 FEW015 03/01 Q1026 BLU+
Observed Flight Rules
Nov-16 @ 15:20 UTC
(44 minutes ago)
VFR
Wind Visibility
50° at 7 knots 10,000+ meters
Clouds
  • Few at 1,500' AGL
Temperature Dewpoint
3°C / 37°F 1°C / 34°F
Humidity Altimeter Pressure
87% 30.3" Hg 1026 hPa